sensor_id;sensor_type;location;lat;lon;timestamp;pressure;altitude;pressure_sealevel;temperature;humidity
81641;BME280;74020;50.722;-1.944;2024-03-08T00:01:43;100718.85;;;5.35;100.00
81641;BME280;74020;50.722;-1.944;2024-03-08T00:04:09;100715.55;;;5.33;100.00
81641;BME280;74020;50.722;-1.944;2024-03-08T00:06:34;100716.73;;;5.37;100.00
81641;BME280;74020;50.722;-1.944;2024-03-08T00:09:00;100706.70;;;5.26;100.00
81641;BME280;74020;50.722;-1.944;2024-03-08T00:11:26;100706.31;;;5.20;100.00
81641;BME280;74020;50.722;-1.944;2024-03-08T00:13:51;100701.89;;;5.21;100.00
81641;BME280;74020;50.722;-1.944;2024-03-08T00:16:17;100701.36;;;5.14;100.00
81641;BME280;74020;50.722;-1.944;2024-03-08T00:18:42;100696.46;;;5.19;100.00
81641;BME280;74020;50.722;-1.944;2024-03-08T00:21:07;100693.83;;;5.17;100.00
81641;BME280;74020;50.722;-1.944;2024-03-08T00:23:32;100694.39;;;5.21;100.00
81641;BME280;74020;50.722;-1.944;2024-03-08T00:25:58;100691.87;;;5.15;100.00
81641;BME280;74020;50.722;-1.944;2024-03-08T00:28:25;100687.28;;;5.14;100.00
81641;BME280;74020;50.722;-1.944;2024-03-08T00:30:49;100685.56;;;5.19;100.00
81641;BME280;74020;50.722;-1.944;2024-03-08T00:33:15;100686.70;;;5.11;100.00
81641;BME280;74020;50.722;-1.944;2024-03-08T00:35:40;100684.62;;;5.04;100.00
81641;BME280;74020;50.722;-1.944;2024-03-08T00:38:06;100683.82;;;5.06;100.00
81641;BME280;74020;50.722;-1.944;2024-03-08T00:40:32;100681.03;;;5.08;100.00
81641;BME280;74020;50.722;-1.944;2024-03-08T00:42:57;100677.27;;;5.08;100.00
81641;BME280;74020;50.722;-1.944;2024-03-08T00:45:22;100674.95;;;5.11;100.00
81641;BME280;74020;50.722;-1.944;2024-03-08T00:47:47;100667.82;;;5.10;100.00
81641;BME280;74020;50.722;-1.944;2024-03-08T00:50:13;100664.78;;;5.08;100.00
81641;BME280;74020;50.722;-1.944;2024-03-08T00:52:39;100657.01;;;4.99;100.00
81641;BME280;74020;50.722;-1.944;2024-03-08T00:55:04;100652.81;;;5.06;100.00
81641;BME280;74020;50.722;-1.944;2024-03-08T00:57:30;100648.75;;;5.07;100.00
81641;BME280;74020;50.722;-1.944;2024-03-08T00:59:55;100647.11;;;5.11;100.00
81641;BME280;74020;50.722;-1.944;2024-03-08T01:02:21;100638.46;;;5.05;100.00
81641;BME280;74020;50.722;-1.944;2024-03-08T01:04:47;100635.11;;;5.05;100.00
81641;BME280;74020;50.722;-1.944;2024-03-08T01:07:12;100628.22;;;4.98;100.00
81641;BME280;74020;50.722;-1.944;2024-03-08T01:09:38;100623.76;;;5.03;100.00
81641;BME280;74020;50.722;-1.944;2024-03-08T01:12:03;100618.95;;;5.04;100.00
81641;BME280;74020;50.722;-1.944;2024-03-08T01:14:28;100615.63;;;4.96;100.00
81641;BME280;74020;50.722;-1.944;2024-03-08T01:16:54;100614.59;;;4.97;100.00
81641;BME280;74020;50.722;-1.944;2024-03-08T01:19:19;100605.89;;;4.90;100.00
81641;BME280;74020;50.722;-1.944;2024-03-08T01:21:45;100603.03;;;4.90;100.00
81641;BME280;74020;50.722;-1.944;2024-03-08T01:24:10;100596.78;;;4.87;100.00
81641;BME280;74020;50.722;-1.944;2024-03-08T01:26:35;100595.66;;;4.85;100.00
81641;BME280;74020;50.722;-1.944;2024-03-08T01:29:01;100596.07;;;4.79;100.00
81641;BME280;74020;50.722;-1.944;2024-03-08T01:31:26;100592.41;;;4.81;100.00
81641;BME280;74020;50.722;-1.944;2024-03-08T01:33:51;100587.05;;;4.83;100.00
81641;BME280;74020;50.722;-1.944;2024-03-08T01:36:16;100585.46;;;4.80;100.00
81641;BME280;74020;50.722;-1.944;2024-03-08T01:38:42;100578.20;;;4.78;100.00
81641;BME280;74020;50.722;-1.944;2024-03-08T01:41:08;100574.42;;;4.77;100.00
81641;BME280;74020;50.722;-1.944;2024-03-08T01:43:33;100568.30;;;4.69;100.00
81641;BME280;74020;50.722;-1.944;2024-03-08T01:45:59;100565.21;;;4.69;100.00
81641;BME280;74020;50.722;-1.944;2024-03-08T01:48:24;100559.40;;;4.67;100.00
81641;BME280;74020;50.722;-1.944;2024-03-08T01:50:49;100557.23;;;4.61;100.00
81641;BME280;74020;50.722;-1.944;2024-03-08T01:53:20;100553.45;;;4.63;100.00
81641;BME280;74020;50.722;-1.944;2024-03-08T01:55:42;100550.30;;;4.64;100.00
81641;BME280;74020;50.722;-1.944;2024-03-08T01:58:06;100549.08;;;4.66;100.00
81641;BME280;74020;50.722;-1.944;2024-03-08T02:00:32;100546.75;;;4.63;100.00
81641;BME280;74020;50.722;-1.944;2024-03-08T02:02:58;100544.55;;;4.57;100.00
81641;BME280;74020;50.722;-1.944;2024-03-08T02:05:23;100544.28;;;4.59;100.00
81641;BME280;74020;50.722;-1.944;2024-03-08T02:07:47;100543.22;;;4.61;100.00
81641;BME280;74020;50.722;-1.944;2024-03-08T02:10:13;100538.90;;;4.62;100.00
81641;BME280;74020;50.722;-1.944;2024-03-08T02:12:39;100536.60;;;4.53;100.00
81641;BME280;74020;50.722;-1.944;2024-03-08T02:15:05;100531.02;;;4.50;100.00
81641;BME280;74020;50.722;-1.944;2024-03-08T02:17:30;100528.02;;;4.57;100.00
81641;BME280;74020;50.722;-1.944;2024-03-08T02:19:55;100519.48;;;4.56;100.00
81641;BME280;74020;50.722;-1.944;2024-03-08T02:22:20;100516.61;;;4.49;100.00
81641;BME280;74020;50.722;-1.944;2024-03-08T02:24:46;100514.33;;;4.47;100.00
81641;BME280;74020;50.722;-1.944;2024-03-08T02:27:12;100511.95;;;4.52;100.00
81641;BME280;74020;50.722;-1.944;2024-03-08T02:29:38;100505.30;;;4.58;100.00
81641;BME280;74020;50.722;-1.944;2024-03-08T02:32:03;100499.11;;;4.50;100.00
81641;BME280;74020;50.722;-1.944;2024-03-08T02:34:28;100491.12;;;4.52;100.00
81641;BME280;74020;50.722;-1.944;2024-03-08T02:36:53;100480.32;;;4.48;100.00
81641;BME280;74020;50.722;-1.944;2024-03-08T02:39:18;100478.22;;;4.50;100.00
81641;BME280;74020;50.722;-1.944;2024-03-08T02:41:44;100478.94;;;4.44;100.00
81641;BME280;74020;50.722;-1.944;2024-03-08T02:44:09;100467.28;;;4.40;100.00
81641;BME280;74020;50.722;-1.944;2024-03-08T02:46:34;100464.65;;;4.36;100.00
81641;BME280;74020;50.722;-1.944;2024-03-08T02:48:59;100455.95;;;4.30;100.00
81641;BME280;74020;50.722;-1.944;2024-03-08T02:51:25;100451.46;;;4.32;100.00
81641;BME280;74020;50.722;-1.944;2024-03-08T02:53:50;100447.68;;;4.26;100.00
81641;BME280;74020;50.722;-1.944;2024-03-08T02:56:15;100446.67;;;4.24;100.00
81641;BME280;74020;50.722;-1.944;2024-03-08T02:58:40;100444.40;;;4.22;100.00
81641;BME280;74020;50.722;-1.944;2024-03-08T03:01:06;100444.37;;;4.20;100.00
81641;BME280;74020;50.722;-1.944;2024-03-08T03:03:31;100437.07;;;4.20;100.00
81641;BME280;74020;50.722;-1.944;2024-03-08T03:05:56;100432.84;;;4.23;100.00
81641;BME280;74020;50.722;-1.944;2024-03-08T03:08:24;100428.83;;;4.21;100.00
81641;BME280;74020;50.722;-1.944;2024-03-08T03:10:48;100422.00;;;4.15;100.00
81641;BME280;74020;50.722;-1.944;2024-03-08T03:13:14;100419.08;;;4.18;100.00
81641;BME280;74020;50.722;-1.944;2024-03-08T03:15:39;100416.98;;;4.17;100.00
81641;BME280;74020;50.722;-1.944;2024-03-08T03:18:06;100413.68;;;4.10;100.00
81641;BME280;74020;50.722;-1.944;2024-03-08T03:20:30;100407.36;;;4.02;100.00
81641;BME280;74020;50.722;-1.944;2024-03-08T03:22:55;100405.62;;;4.00;100.00
81641;BME280;74020;50.722;-1.944;2024-03-08T03:25:21;100399.02;;;4.05;100.00
81641;BME280;74020;50.722;-1.944;2024-03-08T03:27:46;100396.65;;;3.98;100.00
81641;BME280;74020;50.722;-1.944;2024-03-08T03:30:12;100392.43;;;3.98;100.00
81641;BME280;74020;50.722;-1.944;2024-03-08T03:32:38;100386.75;;;3.92;100.00
81641;BME280;74020;50.722;-1.944;2024-03-08T03:35:03;100388.24;;;3.88;100.00
81641;BME280;74020;50.722;-1.944;2024-03-08T03:37:28;100384.62;;;3.95;100.00
81641;BME280;74020;50.722;-1.944;2024-03-08T03:39:53;100383.34;;;3.89;100.00
81641;BME280;74020;50.722;-1.944;2024-03-08T03:42:19;100378.18;;;3.93;100.00
81641;BME280;74020;50.722;-1.944;2024-03-08T03:44:44;100371.71;;;3.92;100.00
81641;BME280;74020;50.722;-1.944;2024-03-08T03:47:10;100366.16;;;3.91;100.00
81641;BME280;74020;50.722;-1.944;2024-03-08T03:49:34;100363.50;;;3.96;100.00
81641;BME280;74020;50.722;-1.944;2024-03-08T03:51:59;100359.00;;;3.96;100.00
81641;BME280;74020;50.722;-1.944;2024-03-08T03:54:25;100349.09;;;3.91;100.00
81641;BME280;74020;50.722;-1.944;2024-03-08T03:56:50;100344.59;;;3.96;100.00
81641;BME280;74020;50.722;-1.944;2024-03-08T03:59:16;100338.91;;;3.92;100.00
81641;BME280;74020;50.722;-1.944;2024-03-08T04:01:42;100337.87;;;3.98;100.00
81641;BME280;74020;50.722;-1.944;2024-03-08T04:04:06;100332.59;;;3.97;100.00
81641;BME280;74020;50.722;-1.944;2024-03-08T04:06:32;100327.53;;;3.91;100.00
81641;BME280;74020;50.722;-1.944;2024-03-08T04:08:58;100325.37;;;3.98;100.00
81641;BME280;74020;50.722;-1.944;2024-03-08T04:11:23;100323.83;;;3.98;100.00
81641;BME280;74020;50.722;-1.944;2024-03-08T04:13:48;100319.65;;;3.91;100.00
81641;BME280;74020;50.722;-1.944;2024-03-08T04:16:14;100317.22;;;3.90;100.00
81641;BME280;74020;50.722;-1.944;2024-03-08T04:18:39;100315.56;;;3.94;100.00
81641;BME280;74020;50.722;-1.944;2024-03-08T04:21:05;100305.16;;;3.88;100.00
81641;BME280;74020;50.722;-1.944;2024-03-08T04:23:30;100308.56;;;3.86;100.00
81641;BME280;74020;50.722;-1.944;2024-03-08T04:25:56;100306.89;;;3.78;100.00
81641;BME280;74020;50.722;-1.944;2024-03-08T04:28:22;100302.30;;;3.79;100.00
81641;BME280;74020;50.722;-1.944;2024-03-08T04:30:47;100300.45;;;3.79;100.00
81641;BME280;74020;50.722;-1.944;2024-03-08T04:33:12;100301.09;;;3.80;100.00
81641;BME280;74020;50.722;-1.944;2024-03-08T04:35:38;100297.49;;;3.74;100.00
81641;BME280;74020;50.722;-1.944;2024-03-08T04:38:04;100292.97;;;3.79;100.00
81641;BME280;74020;50.722;-1.944;2024-03-08T04:40:30;100293.71;;;3.85;100.00
81641;BME280;74020;50.722;-1.944;2024-03-08T04:42:55;100293.95;;;3.81;100.00
81641;BME280;74020;50.722;-1.944;2024-03-08T04:45:21;100291.60;;;3.85;100.00
81641;BME280;74020;50.722;-1.944;2024-03-08T04:47:46;100288.06;;;3.88;100.00
81641;BME280;74020;50.722;-1.944;2024-03-08T04:50:12;100284.28;;;3.80;100.00
81641;BME280;74020;50.722;-1.944;2024-03-08T04:52:37;100285.52;;;3.87;100.00
81641;BME280;74020;50.722;-1.944;2024-03-08T04:55:02;100284.12;;;3.82;100.00
81641;BME280;74020;50.722;-1.944;2024-03-08T04:57:27;100285.81;;;3.81;100.00
81641;BME280;74020;50.722;-1.944;2024-03-08T04:59:53;100288.21;;;3.84;100.00
81641;BME280;74020;50.722;-1.944;2024-03-08T05:02:18;100289.04;;;3.88;100.00
81641;BME280;74020;50.722;-1.944;2024-03-08T05:04:43;100292.19;;;3.85;100.00
81641;BME280;74020;50.722;-1.944;2024-03-08T05:07:09;100295.03;;;3.81;100.00
81641;BME280;74020;50.722;-1.944;2024-03-08T05:09:35;100295.45;;;3.86;100.00
81641;BME280;74020;50.722;-1.944;2024-03-08T05:12:00;100300.71;;;3.92;100.00
81641;BME280;74020;50.722;-1.944;2024-03-08T05:14:25;100303.19;;;3.88;100.00
81641;BME280;74020;50.722;-1.944;2024-03-08T05:16:51;100301.63;;;3.89;100.00
81641;BME280;74020;50.722;-1.944;2024-03-08T05:19:16;100295.73;;;3.87;100.00
81641;BME280;74020;50.722;-1.944;2024-03-08T05:21:41;100291.08;;;3.83;100.00
81641;BME280;74020;50.722;-1.944;2024-03-08T05:24:07;100285.89;;;3.76;100.00
81641;BME280;74020;50.722;-1.944;2024-03-08T05:26:32;100285.17;;;3.72;100.00
81641;BME280;74020;50.722;-1.944;2024-03-08T05:28:58;100284.46;;;3.77;100.00
81641;BME280;74020;50.722;-1.944;2024-03-08T05:31:23;100286.03;;;3.72;100.00
81641;BME280;74020;50.722;-1.944;2024-03-08T05:33:48;100284.42;;;3.74;100.00
81641;BME280;74020;50.722;-1.944;2024-03-08T05:36:14;100287.75;;;3.72;100.00
81641;BME280;74020;50.722;-1.944;2024-03-08T05:38:39;100285.91;;;3.74;100.00
81641;BME280;74020;50.722;-1.944;2024-03-08T05:41:04;100287.76;;;3.80;100.00
81641;BME280;74020;50.722;-1.944;2024-03-08T05:43:30;100280.87;;;3.80;100.00
81641;BME280;74020;50.722;-1.944;2024-03-08T05:45:56;100279.76;;;3.70;100.00
81641;BME280;74020;50.722;-1.944;2024-03-08T05:48:21;100283.60;;;3.78;100.00
81641;BME280;74020;50.722;-1.944;2024-03-08T05:50:47;100284.85;;;3.68;100.00
81641;BME280;74020;50.722;-1.944;2024-03-08T05:53:12;100286.21;;;3.65;100.00
81641;BME280;74020;50.722;-1.944;2024-03-08T05:55:37;100282.22;;;3.71;100.00
81641;BME280;74020;50.722;-1.944;2024-03-08T05:58:03;100273.85;;;3.64;100.00
81641;BME280;74020;50.722;-1.944;2024-03-08T06:00:29;100268.63;;;3.59;100.00
81641;BME280;74020;50.722;-1.944;2024-03-08T06:02:54;100267.29;;;3.56;100.00
81641;BME280;74020;50.722;-1.944;2024-03-08T06:05:19;100262.51;;;3.59;100.00
81641;BME280;74020;50.722;-1.944;2024-03-08T06:07:45;100252.70;;;3.61;100.00
81641;BME280;74020;50.722;-1.944;2024-03-08T06:10:11;100250.78;;;3.55;100.00
81641;BME280;74020;50.722;-1.944;2024-03-08T06:12:36;100254.40;;;3.52;100.00
81641;BME280;74020;50.722;-1.944;2024-03-08T06:15:02;100256.17;;;3.47;100.00
81641;BME280;74020;50.722;-1.944;2024-03-08T06:17:27;100256.38;;;3.43;100.00
81641;BME280;74020;50.722;-1.944;2024-03-08T06:19:53;100256.80;;;3.47;100.00
81641;BME280;74020;50.722;-1.944;2024-03-08T06:22:18;100255.04;;;3.43;100.00
81641;BME280;74020;50.722;-1.944;2024-03-08T06:24:44;100248.68;;;3.45;100.00
81641;BME280;74020;50.722;-1.944;2024-03-08T06:27:09;100252.72;;;3.43;100.00
81641;BME280;74020;50.722;-1.944;2024-03-08T06:29:35;100253.26;;;3.46;100.00
81641;BME280;74020;50.722;-1.944;2024-03-08T06:32:00;100249.32;;;3.47;100.00
81641;BME280;74020;50.722;-1.944;2024-03-08T06:34:25;100249.31;;;3.49;100.00
81641;BME280;74020;50.722;-1.944;2024-03-08T06:36:50;100249.48;;;3.46;100.00
81641;BME280;74020;50.722;-1.944;2024-03-08T06:39:16;100249.15;;;3.48;100.00
81641;BME280;74020;50.722;-1.944;2024-03-08T06:41:42;100247.10;;;3.51;100.00
81641;BME280;74020;50.722;-1.944;2024-03-08T06:44:07;100242.42;;;3.50;100.00
81641;BME280;74020;50.722;-1.944;2024-03-08T06:46:32;100247.95;;;3.59;100.00
81641;BME280;74020;50.722;-1.944;2024-03-08T06:48:58;100253.30;;;3.58;100.00
81641;BME280;74020;50.722;-1.944;2024-03-08T06:51:23;100252.23;;;3.62;100.00
81641;BME280;74020;50.722;-1.944;2024-03-08T06:53:48;100250.70;;;3.61;100.00
81641;BME280;74020;50.722;-1.944;2024-03-08T06:56:14;100253.96;;;3.61;100.00
81641;BME280;74020;50.722;-1.944;2024-03-08T06:58:39;100248.41;;;3.71;100.00
81641;BME280;74020;50.722;-1.944;2024-03-08T07:01:05;100245.70;;;3.65;100.00
81641;BME280;74020;50.722;-1.944;2024-03-08T07:03:30;100244.78;;;3.61;100.00
81641;BME280;74020;50.722;-1.944;2024-03-08T07:05:56;100240.50;;;3.70;100.00
81641;BME280;74020;50.722;-1.944;2024-03-08T07:08:21;100237.95;;;3.70;100.00
81641;BME280;74020;50.722;-1.944;2024-03-08T07:10:46;100232.07;;;3.71;100.00
81641;BME280;74020;50.722;-1.944;2024-03-08T07:13:12;100229.12;;;3.76;100.00
81641;BME280;74020;50.722;-1.944;2024-03-08T07:15:37;100231.07;;;3.91;100.00
81641;BME280;74020;50.722;-1.944;2024-03-08T07:18:03;100228.45;;;3.94;100.00
81641;BME280;74020;50.722;-1.944;2024-03-08T07:20:28;100224.70;;;3.91;100.00
81641;BME280;74020;50.722;-1.944;2024-03-08T07:22:54;100222.16;;;3.97;100.00
81641;BME280;74020;50.722;-1.944;2024-03-08T07:25:19;100220.37;;;3.97;100.00
81641;BME280;74020;50.722;-1.944;2024-03-08T07:27:44;100214.36;;;3.95;100.00
81641;BME280;74020;50.722;-1.944;2024-03-08T07:30:10;100217.97;;;4.02;100.00
81641;BME280;74020;50.722;-1.944;2024-03-08T07:32:35;100215.09;;;3.97;100.00
81641;BME280;74020;50.722;-1.944;2024-03-08T07:35:00;100216.25;;;4.03;100.00
81641;BME280;74020;50.722;-1.944;2024-03-08T07:37:26;100218.12;;;4.08;100.00
81641;BME280;74020;50.722;-1.944;2024-03-08T07:39:51;100210.09;;;4.13;100.00
81641;BME280;74020;50.722;-1.944;2024-03-08T07:42:16;100207.63;;;4.22;100.00
81641;BME280;74020;50.722;-1.944;2024-03-08T07:44:42;100202.31;;;4.30;100.00
81641;BME280;74020;50.722;-1.944;2024-03-08T07:47:07;100198.14;;;4.22;100.00
81641;BME280;74020;50.722;-1.944;2024-03-08T07:49:33;100191.05;;;4.39;100.00
81641;BME280;74020;50.722;-1.944;2024-03-08T07:51:58;100187.53;;;4.35;100.00
81641;BME280;74020;50.722;-1.944;2024-03-08T07:54:24;100182.83;;;4.44;100.00
81641;BME280;74020;50.722;-1.944;2024-03-08T07:56:50;100181.61;;;4.48;100.00
81641;BME280;74020;50.722;-1.944;2024-03-08T07:59:15;100177.81;;;4.49;100.00
81641;BME280;74020;50.722;-1.944;2024-03-08T08:01:41;100180.50;;;4.58;100.00
81641;BME280;74020;50.722;-1.944;2024-03-08T08:04:06;100175.06;;;4.59;100.00
81641;BME280;74020;50.722;-1.944;2024-03-08T08:06:32;100171.52;;;4.56;100.00
81641;BME280;74020;50.722;-1.944;2024-03-08T08:08:57;100165.40;;;4.63;100.00
81641;BME280;74020;50.722;-1.944;2024-03-08T08:11:25;100159.66;;;4.61;100.00
81641;BME280;74020;50.722;-1.944;2024-03-08T08:13:48;100158.37;;;4.67;100.00
81641;BME280;74020;50.722;-1.944;2024-03-08T08:16:14;100153.90;;;4.71;100.00
81641;BME280;74020;50.722;-1.944;2024-03-08T08:18:39;100153.24;;;4.85;99.75
81641;BME280;74020;50.722;-1.944;2024-03-08T08:21:05;100152.06;;;4.90;99.48
81641;BME280;74020;50.722;-1.944;2024-03-08T08:23:31;100150.38;;;4.93;99.23
81641;BME280;74020;50.722;-1.944;2024-03-08T08:25:56;100147.44;;;4.97;99.29
81641;BME280;74020;50.722;-1.944;2024-03-08T08:28:21;100141.95;;;5.04;98.76
81641;BME280;74020;50.722;-1.944;2024-03-08T08:30:47;100146.74;;;5.05;98.74
81641;BME280;74020;50.722;-1.944;2024-03-08T08:33:12;100150.02;;;5.03;98.53
81641;BME280;74020;50.722;-1.944;2024-03-08T08:35:38;100144.12;;;5.10;97.77
81641;BME280;74020;50.722;-1.944;2024-03-08T08:38:04;100142.63;;;5.11;98.50
81641;BME280;74020;50.722;-1.944;2024-03-08T08:40:29;100139.53;;;5.15;97.93
81641;BME280;74020;50.722;-1.944;2024-03-08T08:42:54;100136.88;;;5.13;97.52
81641;BME280;74020;50.722;-1.944;2024-03-08T08:45:20;100135.58;;;5.20;97.40
81641;BME280;74020;50.722;-1.944;2024-03-08T08:47:45;100136.77;;;5.31;97.30
81641;BME280;74020;50.722;-1.944;2024-03-08T08:50:11;100132.74;;;5.37;97.41
81641;BME280;74020;50.722;-1.944;2024-03-08T08:52:36;100127.13;;;5.42;96.55
81641;BME280;74020;50.722;-1.944;2024-03-08T08:55:02;100124.48;;;5.42;96.50
81641;BME280;74020;50.722;-1.944;2024-03-08T08:57:27;100123.76;;;5.66;95.88
81641;BME280;74020;50.722;-1.944;2024-03-08T08:59:52;100126.71;;;5.75;95.44
81641;BME280;74020;50.722;-1.944;2024-03-08T09:02:18;100122.32;;;5.79;94.98
81641;BME280;74020;50.722;-1.944;2024-03-08T09:04:44;100122.71;;;5.81;94.57
81641;BME280;74020;50.722;-1.944;2024-03-08T09:07:09;100124.45;;;5.93;94.11
81641;BME280;74020;50.722;-1.944;2024-03-08T09:09:35;100117.80;;;5.98;94.15
81641;BME280;74020;50.722;-1.944;2024-03-08T09:12:00;100115.77;;;5.94;94.11
81641;BME280;74020;50.722;-1.944;2024-03-08T09:14:26;100115.57;;;6.09;94.06
81641;BME280;74020;50.722;-1.944;2024-03-08T09:16:52;100105.35;;;6.04;94.29
81641;BME280;74020;50.722;-1.944;2024-03-08T09:19:17;100112.43;;;6.13;93.27
81641;BME280;74020;50.722;-1.944;2024-03-08T09:21:43;100112.79;;;6.25;93.03
81641;BME280;74020;50.722;-1.944;2024-03-08T09:24:08;100114.54;;;6.30;92.85
81641;BME280;74020;50.722;-1.944;2024-03-08T09:26:33;100109.61;;;6.19;92.49
81641;BME280;74020;50.722;-1.944;2024-03-08T09:28:59;100111.94;;;6.07;92.79
81641;BME280;74020;50.722;-1.944;2024-03-08T09:31:24;100106.70;;;6.17;92.82
81641;BME280;74020;50.722;-1.944;2024-03-08T09:33:50;100110.15;;;6.11;93.24
81641;BME280;74020;50.722;-1.944;2024-03-08T09:36:15;100106.91;;;6.22;92.69
81641;BME280;74020;50.722;-1.944;2024-03-08T09:38:41;100103.75;;;6.28;92.63
81641;BME280;74020;50.722;-1.944;2024-03-08T09:41:06;100097.50;;;6.44;92.27
81641;BME280;74020;50.722;-1.944;2024-03-08T09:43:33;100093.35;;;6.49;91.86
81641;BME280;74020;50.722;-1.944;2024-03-08T09:45:58;100085.92;;;6.51;91.94
81641;BME280;74020;50.722;-1.944;2024-03-08T09:48:24;100079.40;;;6.56;92.37
81641;BME280;74020;50.722;-1.944;2024-03-08T09:50:49;100076.76;;;6.71;90.84
81641;BME280;74020;50.722;-1.944;2024-03-08T09:53:14;100060.65;;;6.82;91.05
81641;BME280;74020;50.722;-1.944;2024-03-08T09:55:39;100066.19;;;6.88;90.33
81641;BME280;74020;50.722;-1.944;2024-03-08T09:58:06;100057.28;;;6.90;90.30
81641;BME280;74020;50.722;-1.944;2024-03-08T10:00:29;100054.18;;;7.02;89.34
81641;BME280;74020;50.722;-1.944;2024-03-08T10:03:00;100052.86;;;6.98;89.39
81641;BME280;74020;50.722;-1.944;2024-03-08T10:05:20;100049.06;;;6.89;89.32
81641;BME280;74020;50.722;-1.944;2024-03-08T10:07:45;100043.21;;;6.68;89.74
81641;BME280;74020;50.722;-1.944;2024-03-08T10:10:10;100041.54;;;6.56;90.49
81641;BME280;74020;50.722;-1.944;2024-03-08T10:12:35;100042.83;;;6.57;89.98
81641;BME280;74020;50.722;-1.944;2024-03-08T10:15:01;100033.83;;;6.55;90.32
81641;BME280;74020;50.722;-1.944;2024-03-08T10:17:26;100031.94;;;6.55;90.62
81641;BME280;74020;50.722;-1.944;2024-03-08T10:19:52;100029.36;;;6.40;90.47
81641;BME280;74020;50.722;-1.944;2024-03-08T10:22:17;100025.89;;;6.38;91.08
81641;BME280;74020;50.722;-1.944;2024-03-08T10:24:45;100026.33;;;6.44;91.61
81641;BME280;74020;50.722;-1.944;2024-03-08T10:27:08;100019.17;;;6.41;91.27
81641;BME280;74020;50.722;-1.944;2024-03-08T10:29:33;100016.43;;;6.48;91.55
81641;BME280;74020;50.722;-1.944;2024-03-08T10:31:59;100009.09;;;6.53;91.57
81641;BME280;74020;50.722;-1.944;2024-03-08T10:34:24;100001.04;;;6.56;90.80
81641;BME280;74020;50.722;-1.944;2024-03-08T10:36:50;99998.12;;;6.51;91.27
81641;BME280;74020;50.722;-1.944;2024-03-08T10:39:21;99991.76;;;6.58;90.88
81641;BME280;74020;50.722;-1.944;2024-03-08T10:41:42;99990.93;;;6.59;90.56
81641;BME280;74020;50.722;-1.944;2024-03-08T10:44:14;99993.26;;;6.79;90.73
81641;BME280;74020;50.722;-1.944;2024-03-08T10:46:38;99977.52;;;6.76;90.41
81641;BME280;74020;50.722;-1.944;2024-03-08T10:48:58;99977.08;;;6.89;89.80
81641;BME280;74020;50.722;-1.944;2024-03-08T10:51:22;99972.58;;;6.88;89.25
81641;BME280;74020;50.722;-1.944;2024-03-08T10:53:48;99972.70;;;6.90;89.27
81641;BME280;74020;50.722;-1.944;2024-03-08T10:56:13;99972.31;;;7.17;88.53
81641;BME280;74020;50.722;-1.944;2024-03-08T10:58:39;99977.82;;;7.01;88.98
81641;BME280;74020;50.722;-1.944;2024-03-08T11:01:05;99973.60;;;7.08;88.53
81641;BME280;74020;50.722;-1.944;2024-03-08T11:03:45;99964.12;;;7.12;87.83
81641;BME280;74020;50.722;-1.944;2024-03-08T11:05:56;99970.89;;;7.11;87.63
81641;BME280;74020;50.722;-1.944;2024-03-08T11:08:22;99965.88;;;7.37;87.01
81641;BME280;74020;50.722;-1.944;2024-03-08T11:10:47;99965.75;;;7.49;87.01
81641;BME280;74020;50.722;-1.944;2024-03-08T11:15:39;99963.06;;;7.91;85.43
81641;BME280;74020;50.722;-1.944;2024-03-08T11:18:04;99958.35;;;8.12;84.58
81641;BME280;74020;50.722;-1.944;2024-03-08T11:20:28;99956.31;;;8.22;83.93
81641;BME280;74020;50.722;-1.944;2024-03-08T11:22:54;99955.59;;;8.26;83.43
81641;BME280;74020;50.722;-1.944;2024-03-08T11:25:31;99947.10;;;8.21;82.36
81641;BME280;74020;50.722;-1.944;2024-03-08T11:27:52;99939.67;;;8.30;82.06
81641;BME280;74020;50.722;-1.944;2024-03-08T11:30:11;99948.73;;;8.59;80.35
81641;BME280;74020;50.722;-1.944;2024-03-08T11:32:35;99945.80;;;8.73;79.70
81641;BME280;74020;50.722;-1.944;2024-03-08T11:35:01;99948.70;;;8.75;79.22
81641;BME280;74020;50.722;-1.944;2024-03-08T11:37:28;99943.85;;;8.71;78.68
81641;BME280;74020;50.722;-1.944;2024-03-08T11:39:53;99942.78;;;9.00;77.77
81641;BME280;74020;50.722;-1.944;2024-03-08T11:42:18;99939.02;;;9.00;77.37
81641;BME280;74020;50.722;-1.944;2024-03-08T11:44:42;99937.63;;;9.12;76.91
81641;BME280;74020;50.722;-1.944;2024-03-08T11:47:09;99936.60;;;9.07;77.21
81641;BME280;74020;50.722;-1.944;2024-03-08T11:49:33;99930.41;;;9.26;76.40
81641;BME280;74020;50.722;-1.944;2024-03-08T11:51:58;99926.26;;;9.40;75.73
81641;BME280;74020;50.722;-1.944;2024-03-08T11:54:23;99921.19;;;9.49;75.15
81641;BME280;74020;50.722;-1.944;2024-03-08T11:56:52;99922.35;;;9.35;75.06
81641;BME280;74020;50.722;-1.944;2024-03-08T11:59:14;99920.25;;;9.34;75.08
81641;BME280;74020;50.722;-1.944;2024-03-08T12:01:40;99917.27;;;9.40;73.99
81641;BME280;74020;50.722;-1.944;2024-03-08T12:04:05;99910.00;;;9.30;71.83
81641;BME280;74020;50.722;-1.944;2024-03-08T12:06:36;99900.78;;;9.34;72.90
81641;BME280;74020;50.722;-1.944;2024-03-08T12:08:55;99895.71;;;9.35;72.87
81641;BME280;74020;50.722;-1.944;2024-03-08T12:11:22;99897.35;;;9.45;72.64
81641;BME280;74020;50.722;-1.944;2024-03-08T12:13:47;99887.42;;;9.21;72.92
81641;BME280;74020;50.722;-1.944;2024-03-08T12:16:12;99882.09;;;9.53;72.80
81641;BME280;74020;50.722;-1.944;2024-03-08T12:18:39;99884.44;;;9.43;71.92
81641;BME280;74020;50.722;-1.944;2024-03-08T12:21:05;99875.22;;;9.58;71.66
81641;BME280;74020;50.722;-1.944;2024-03-08T12:23:29;99862.69;;;9.52;70.88
81641;BME280;74020;50.722;-1.944;2024-03-08T12:25:55;99867.37;;;9.50;70.10
81641;BME280;74020;50.722;-1.944;2024-03-08T12:28:20;99852.74;;;9.49;70.53
81641;BME280;74020;50.722;-1.944;2024-03-08T12:30:47;99857.63;;;9.77;70.31
81641;BME280;74020;50.722;-1.944;2024-03-08T12:33:11;99848.38;;;9.63;68.36
81641;BME280;74020;50.722;-1.944;2024-03-08T12:35:37;99840.03;;;9.46;68.32
81641;BME280;74020;50.722;-1.944;2024-03-08T12:38:02;99844.66;;;9.55;68.38